Climatologie pour Saint-Brevin les Pins
Jour • Résumé pour décembre 7, 2017 Système :  Métrique    Anglais   Mixte
« - 1 jour
+ 1 jour »
Jour Semaine Mois Année Personnalisé
  Maximum : Minimum : Moyenne :
Température sous abri : 13.0 °C 3.4 °C 9.4 °C
Point de rosée : 12.7 °C 2.4 °C 8.8 °C
Humidité : 98 % 92 % 96 %
Vitesse du vent : 30.6 km/h 0.0 km/h 12.1 km/h
Rafale : 43.4 km/h - -
Direction :- - SW
Pression : 1027.0 hPa 1015.8 hPa -
Précipitations : 7.1 mm    
Historical Graphs
 
 
Tableau de données pour décembre 7, 2017
Heure Tempé Pt rosée Pression Vent Vitesse Rafale Humidité Taux pluie (/hr) Soleil
00:00 3.4 °C 2.4 °C 1027.0 hPa South 6.4 km/h 20.9 km/h 93 % 0.0 mm 0 W/m2
00:10 3.4 °C 2.4 °C 1027.0 hPa South 9.7 km/h 17.7 km/h 93 % 0.0 mm 0 W/m2
00:15 3.5 °C 2.5 °C 1027.0 hPa SE 9.7 km/h 16.1 km/h 93 % 0.0 mm 0 W/m2
00:20 3.5 °C 2.5 °C 1027.0 hPa SSE 11.3 km/h 16.1 km/h 93 % 0.0 mm 0 W/m2
00:25 3.5 °C 2.5 °C 1026.6 hPa SSE 8.0 km/h 17.7 km/h 93 % 0.0 mm 0 W/m2
00:30 3.5 °C 2.5 °C 1026.6 hPa South 11.3 km/h 17.7 km/h 93 % 0.0 mm 0 W/m2
00:35 3.5 °C 2.5 °C 1026.6 hPa SE 11.3 km/h 16.1 km/h 93 % 0.0 mm 0 W/m2
00:40 3.6 °C 2.5 °C 1026.3 hPa SE 14.5 km/h 16.1 km/h 93 % 0.0 mm 0 W/m2
00:45 3.6 °C 2.6 °C 1026.3 hPa SSE 14.5 km/h 16.1 km/h 93 % 0.0 mm 0 W/m2
00:50 3.7 °C 2.6 °C 1026.3 hPa South 11.3 km/h 16.1 km/h 93 % 0.0 mm 0 W/m2
00:55 3.7 °C 2.6 °C 1026.3 hPa South 9.7 km/h 16.1 km/h 93 % 0.0 mm 0 W/m2
01:00 3.7 °C 2.7 °C 1026.0 hPa SSE 11.3 km/h 19.3 km/h 93 % 0.0 mm 0 W/m2
01:05 3.8 °C 2.7 °C 1026.0 hPa SSE 11.3 km/h 19.3 km/h 93 % 0.0 mm 0 W/m2
01:10 3.8 °C 2.7 °C 1026.0 hPa SSE 9.7 km/h 17.7 km/h 93 % 0.0 mm 0 W/m2
01:15 3.8 °C 2.8 °C 1026.0 hPa SSE 9.7 km/h 17.7 km/h 93 % 0.0 mm 0 W/m2
01:20 3.9 °C 2.9 °C 1026.0 hPa South 8.0 km/h 17.7 km/h 93 % 0.0 mm 0 W/m2
01:25 3.9 °C 2.9 °C 1025.6 hPa SSE 8.0 km/h 17.7 km/h 93 % 0.0 mm 0 W/m2
01:30 4.1 °C 3.0 °C 1025.6 hPa SSW 9.7 km/h 16.1 km/h 93 % 0.0 mm 0 W/m2
01:35 4.2 °C 3.1 °C 1025.6 hPa SSE 8.0 km/h 19.3 km/h 93 % 0.0 mm 0 W/m2
01:40 4.2 °C 3.1 °C 1025.6 hPa South 11.3 km/h 19.3 km/h 93 % 0.0 mm 0 W/m2
01:45 4.1 °C 2.9 °C 1025.6 hPa South 14.5 km/h 19.3 km/h 92 % 0.0 mm 0 W/m2
01:50 4.1 °C 3.0 °C 1025.6 hPa SSE 16.1 km/h 19.3 km/h 93 % 0.0 mm 0 W/m2
01:55 4.0 °C 3.0 °C 1025.6 hPa SSW 6.4 km/h 17.7 km/h 93 % 0.0 mm 0 W/m2
02:00 4.0 °C 3.0 °C 1025.6 hPa SSW 17.7 km/h 20.9 km/h 93 % 0.0 mm 0 W/m2
02:05 3.9 °C 2.8 °C 1025.3 hPa SSE 6.4 km/h 20.9 km/h 92 % 0.0 mm 0 W/m2
02:10 4.0 °C 3.0 °C 1025.3 hPa SSE 14.5 km/h 25.7 km/h 93 % 0.0 mm 0 W/m2
02:15 4.1 °C 3.0 °C 1025.3 hPa SSW 11.3 km/h 25.7 km/h 93 % 0.0 mm 0 W/m2
02:20 4.2 °C 3.1 °C 1024.9 hPa South 16.1 km/h 20.9 km/h 93 % 0.0 mm 0 W/m2
02:25 4.3 °C 3.2 °C 1024.9 hPa SE 9.7 km/h 22.5 km/h 93 % 0.0 mm 0 W/m2
02:30 4.4 °C 3.4 °C 1024.9 hPa South 14.5 km/h 22.5 km/h 93 % 0.0 mm 0 W/m2
02:35 4.5 °C 3.6 °C 1024.9 hPa SSE 14.5 km/h 19.3 km/h 94 % 0.0 mm 0 W/m2
02:40 4.6 °C 3.7 °C 1024.9 hPa SSE 14.5 km/h 22.5 km/h 94 % 0.0 mm 0 W/m2
02:45 4.8 °C 3.9 °C 1024.6 hPa SSE 9.7 km/h 22.5 km/h 94 % 0.0 mm 0 W/m2
02:50 4.9 °C 4.1 °C 1024.6 hPa South 16.1 km/h 22.5 km/h 94 % 0.0 mm 0 W/m2
02:55 5.2 °C 4.4 °C 1024.6 hPa SSW 11.3 km/h 24.1 km/h 95 % 0.0 mm 0 W/m2
03:00 5.3 °C 4.6 °C 1024.6 hPa South 11.3 km/h 29.0 km/h 95 % 0.0 mm 0 W/m2
03:05 5.3 °C 4.6 °C 1024.3 hPa South 12.9 km/h 29.0 km/h 95 % 0.0 mm 0 W/m2
03:10 5.4 °C 4.7 °C 1024.3 hPa South 12.9 km/h 29.0 km/h 95 % 0.0 mm 0 W/m2
03:15 5.4 °C 4.7 °C 1024.3 hPa SE 12.9 km/h 29.0 km/h 95 % 0.0 mm 0 W/m2
03:20 5.5 °C 4.8 °C 1024.3 hPa SSE 17.7 km/h 27.4 km/h 95 % 0.0 mm 0 W/m2
03:25 5.6 °C 4.8 °C 1024.3 hPa SSE 19.3 km/h 25.7 km/h 95 % 0.0 mm 0 W/m2
03:30 5.7 °C 5.0 °C 1024.3 hPa SSE 8.0 km/h 29.0 km/h 95 % 0.0 mm 0 W/m2
03:35 5.8 °C 5.0 °C 1024.3 hPa SSE 20.9 km/h 29.0 km/h 95 % 0.0 mm 0 W/m2
03:40 5.9 °C 5.1 °C 1024.3 hPa South 11.3 km/h 24.1 km/h 95 % 0.0 mm 0 W/m2
03:45 6.0 °C 5.3 °C 1023.9 hPa South 9.7 km/h 29.0 km/h 95 % 0.0 mm 0 W/m2
03:50 6.1 °C 5.4 °C 1023.9 hPa South 17.7 km/h 29.0 km/h 95 % 0.0 mm 0 W/m2
03:55 6.2 °C 5.4 °C 1023.9 hPa SSE 11.3 km/h 27.4 km/h 95 % 0.0 mm 0 W/m2
04:00 6.2 °C 5.6 °C 1023.9 hPa South 8.0 km/h 22.5 km/h 96 % 0.0 mm 0 W/m2
04:05 6.2 °C 5.6 °C 1023.6 hPa SSW 17.7 km/h 25.7 km/h 96 % 0.3 mm 0 W/m2
04:10 6.3 °C 5.7 °C 1023.6 hPa South 14.5 km/h 25.7 km/h 96 % 0.3 mm 0 W/m2
04:15 6.4 °C 5.9 °C 1023.6 hPa South 12.9 km/h 22.5 km/h 96 % 0.3 mm 0 W/m2
04:25 6.7 °C 6.1 °C 1023.6 hPa South 11.3 km/h 29.0 km/h 96 % 0.3 mm 0 W/m2
04:30 6.7 °C 6.1 °C 1023.6 hPa South 14.5 km/h 25.7 km/h 96 % 0.3 mm 0 W/m2
04:35 6.8 °C 6.2 °C 1023.6 hPa South 14.5 km/h 22.5 km/h 96 % 0.3 mm 0 W/m2
04:40 6.8 °C 6.2 °C 1023.2 hPa SSW 11.3 km/h 20.9 km/h 96 % 0.3 mm 0 W/m2
04:45 6.8 °C 6.2 °C 1023.2 hPa South 12.9 km/h 22.5 km/h 96 % 0.3 mm 0 W/m2
04:50 6.9 °C 6.3 °C 1023.2 hPa SSE 6.4 km/h 24.1 km/h 96 % 0.3 mm 0 W/m2
04:55 6.9 °C 6.4 °C 1022.9 hPa South 12.9 km/h 24.1 km/h 96 % 0.3 mm 0 W/m2
05:05 7.2 °C 6.6 °C 1022.9 hPa South 17.7 km/h 22.5 km/h 96 % 0.0 mm 0 W/m2
05:10 7.3 °C 6.7 °C 1022.9 hPa South 16.1 km/h 22.5 km/h 96 % 0.0 mm 0 W/m2
05:15 7.4 °C 6.8 °C 1022.9 hPa SSE 6.4 km/h 20.9 km/h 96 % 0.0 mm 0 W/m2
05:20 7.6 °C 7.0 °C 1022.9 hPa South 12.9 km/h 20.9 km/h 96 % 0.0 mm 0 W/m2
05:25 7.7 °C 7.1 °C 1022.6 hPa SSE 8.0 km/h 19.3 km/h 96 % 0.0 mm 0 W/m2
05:30 7.7 °C 7.1 °C 1022.6 hPa SSE 9.7 km/h 19.3 km/h 96 % 0.0 mm 0 W/m2
05:35 7.8 °C 7.2 °C 1022.6 hPa South 8.0 km/h 19.3 km/h 96 % 0.0 mm 0 W/m2
05:40 7.9 °C 7.3 °C 1022.6 hPa SSE 9.7 km/h 20.9 km/h 96 % 0.0 mm 0 W/m2
05:45 7.9 °C 7.3 °C 1022.2 hPa SSE 9.7 km/h 20.9 km/h 96 % 0.0 mm 0 W/m2
05:50 8.0 °C 7.4 °C 1022.2 hPa SSW 16.1 km/h 16.1 km/h 96 % 0.0 mm 0 W/m2
05:55 8.2 °C 7.6 °C 1022.2 hPa SSW 16.1 km/h 20.9 km/h 96 % 0.0 mm 0 W/m2
06:00 8.6 °C 8.0 °C 1021.9 hPa South 8.0 km/h 20.9 km/h 96 % 0.0 mm 0 W/m2
06:05 8.7 °C 8.1 °C 1021.9 hPa SSW 16.1 km/h 24.1 km/h 96 % 0.0 mm 0 W/m2
06:10 8.9 °C 8.3 °C 1021.9 hPa SSE 6.4 km/h 24.1 km/h 96 % 0.0 mm 0 W/m2
06:15 9.1 °C 8.5 °C 1021.6 hPa South 11.3 km/h 17.7 km/h 96 % 0.0 mm 0 W/m2
06:20 9.2 °C 8.6 °C 1021.6 hPa South 6.4 km/h 19.3 km/h 96 % 0.0 mm 0 W/m2
06:25 9.3 °C 8.7 °C 1021.6 hPa South 14.5 km/h 19.3 km/h 96 % 0.0 mm 0 W/m2
06:30 9.6 °C 9.0 °C 1021.6 hPa SSW 19.3 km/h 22.5 km/h 96 % 0.0 mm 0 W/m2
06:35 10.1 °C 9.4 °C 1021.2 hPa SSW 17.7 km/h 29.0 km/h 96 % 0.0 mm 0 W/m2
06:40 10.4 °C 9.8 °C 1021.2 hPa SSW 11.3 km/h 29.0 km/h 96 % 0.0 mm 0 W/m2
06:45 10.6 °C 9.8 °C 1021.2 hPa SSE 6.4 km/h 32.2 km/h 95 % 0.0 mm 0 W/m2
06:50 10.6 °C 9.8 °C 1021.2 hPa South 12.9 km/h 32.2 km/h 95 % 0.0 mm 0 W/m2
06:55 10.7 °C 9.9 °C 1021.2 hPa SSW 20.9 km/h 30.6 km/h 95 % 0.0 mm 0 W/m2
07:00 10.8 °C 10.0 °C 1021.2 hPa South 17.7 km/h 30.6 km/h 95 % 0.0 mm 0 W/m2
07:05 10.7 °C 10.0 °C 1020.9 hPa South 19.3 km/h 29.0 km/h 95 % 0.0 mm 0 W/m2
07:10 10.7 °C 10.0 °C 1020.9 hPa SSW 19.3 km/h 32.2 km/h 95 % 0.0 mm 0 W/m2
07:15 10.8 °C 10.0 °C 1020.9 hPa South 16.1 km/h 32.2 km/h 95 % 0.0 mm 0 W/m2
07:20 10.8 °C 10.0 °C 1020.9 hPa South 16.1 km/h 29.0 km/h 95 % 0.0 mm 0 W/m2
07:25 10.8 °C 10.1 °C 1020.9 hPa SSW 9.7 km/h 29.0 km/h 95 % 0.0 mm 0 W/m2
07:30 10.8 °C 10.1 °C 1020.9 hPa SSW 11.3 km/h 27.4 km/h 95 % 0.0 mm 0 W/m2
07:35 10.8 °C 10.1 °C 1020.5 hPa SSW 14.5 km/h 27.4 km/h 95 % 0.0 mm 0 W/m2
07:40 10.9 °C 10.2 °C 1020.5 hPa SW 22.5 km/h 29.0 km/h 95 % 0.0 mm 0 W/m2
07:45 11.0 °C 10.2 °C 1020.5 hPa South 8.0 km/h 35.4 km/h 95 % 0.0 mm 0 W/m2
07:50 11.1 °C 10.3 °C 1020.5 hPa SSW 20.9 km/h 35.4 km/h 95 % 0.0 mm 0 W/m2
07:55 11.1 °C 10.3 °C 1020.5 hPa SSW 12.9 km/h 33.8 km/h 95 % 0.0 mm 0 W/m2
08:00 11.2 °C 10.4 °C 1020.5 hPa SSW 12.9 km/h 29.0 km/h 95 % 0.0 mm 0 W/m2
08:05 11.2 °C 10.5 °C 1020.5 hPa SSW 17.7 km/h 29.0 km/h 95 % 0.0 mm 0 W/m2
08:10 11.3 °C 10.7 °C 1020.2 hPa South 14.5 km/h 30.6 km/h 96 % 0.3 mm 0 W/m2
08:15 11.3 °C 10.7 °C 1020.2 hPa SW 11.3 km/h 30.6 km/h 96 % 0.3 mm 0 W/m2
08:20 11.4 °C 10.8 °C 1020.2 hPa South 16.1 km/h 30.6 km/h 96 % 0.3 mm 0 W/m2
08:25 11.4 °C 10.8 °C 1020.2 hPa South 16.1 km/h 30.6 km/h 96 % 0.3 mm 0 W/m2
08:30 11.4 °C 10.8 °C 1020.2 hPa SSW 11.3 km/h 27.4 km/h 96 % 0.3 mm 0 W/m2
08:35 11.5 °C 10.9 °C 1019.9 hPa SSW 9.7 km/h 25.7 km/h 96 % 0.3 mm 0 W/m2
08:40 11.5 °C 10.9 °C 1019.9 hPa SSW 14.5 km/h 25.7 km/h 96 % 0.3 mm 0 W/m2
08:45 11.4 °C 10.8 °C 1019.9 hPa SSE 22.5 km/h 25.7 km/h 96 % 0.3 mm 0 W/m2
08:50 11.3 °C 10.6 °C 1019.9 hPa SSW 16.1 km/h 29.0 km/h 95 % 0.3 mm 0 W/m2
08:55 11.3 °C 10.6 °C 1019.9 hPa South 11.3 km/h 29.0 km/h 95 % 0.3 mm 0 W/m2
09:00 11.3 °C 10.6 °C 1019.9 hPa South 20.9 km/h 25.7 km/h 95 % 0.5 mm 0 W/m2
09:05 11.3 °C 10.7 °C 1019.5 hPa SSW 12.9 km/h 25.7 km/h 96 % 0.5 mm 0 W/m2
09:10 11.4 °C 10.8 °C 1019.5 hPa SSW 14.5 km/h 33.8 km/h 96 % 0.3 mm 0 W/m2
09:15 11.4 °C 10.8 °C 1019.5 hPa SSW 12.9 km/h 33.8 km/h 96 % 0.3 mm 0 W/m2
09:20 11.4 °C 10.8 °C 1019.5 hPa SW 14.5 km/h 32.2 km/h 96 % 0.3 mm 9 W/m2
09:25 11.4 °C 10.8 °C 1019.5 hPa SSW 16.1 km/h 32.2 km/h 96 % 0.3 mm 12 W/m2
09:30 11.4 °C 10.8 °C 1019.5 hPa South 17.7 km/h 30.6 km/h 96 % 0.3 mm 7 W/m2
09:40 11.5 °C 10.9 °C 1019.5 hPa South 9.7 km/h 29.0 km/h 96 % 0.8 mm 7 W/m2
09:45 11.6 °C 10.9 °C 1019.2 hPa SSW 14.5 km/h 37.0 km/h 96 % 1.0 mm 11 W/m2
09:50 11.6 °C 11.0 °C 1019.5 hPa SW 8.0 km/h 37.0 km/h 96 % 1.3 mm 9 W/m2
09:55 11.6 °C 11.0 °C 1019.5 hPa SSW 17.7 km/h 29.0 km/h 96 % 1.5 mm 7 W/m2
10:00 11.6 °C 11.2 °C 1019.5 hPa SW 20.9 km/h 29.0 km/h 97 % 1.5 mm 11 W/m2
10:05 11.7 °C 11.2 °C 1019.2 hPa SW 24.1 km/h 43.4 km/h 97 % 1.8 mm 21 W/m2
10:10 11.7 °C 11.3 °C 1019.2 hPa SW 16.1 km/h 43.4 km/h 97 % 2.0 mm 14 W/m2
10:15 11.8 °C 11.3 °C 1019.5 hPa SSW 16.1 km/h 32.2 km/h 97 % 2.3 mm 7 W/m2
10:20 11.8 °C 11.4 °C 1019.2 hPa West 17.7 km/h 32.2 km/h 97 % 2.8 mm 5 W/m2
10:25 11.8 °C 11.4 °C 1019.2 hPa SSW 16.1 km/h 33.8 km/h 97 % 3.0 mm 9 W/m2
10:30 11.9 °C 11.5 °C 1018.8 hPa SW 8.0 km/h 33.8 km/h 97 % 3.3 mm 12 W/m2
10:40 12.1 °C 11.6 °C 1018.8 hPa South 19.3 km/h 30.6 km/h 97 % 2.8 mm 11 W/m2
10:45 12.1 °C 11.6 °C 1018.8 hPa WSW 11.3 km/h 37.0 km/h 97 % 2.8 mm 16 W/m2
10:50 12.1 °C 11.6 °C 1018.8 hPa South 8.0 km/h 37.0 km/h 97 % 2.3 mm 19 W/m2
10:55 12.1 °C 11.6 °C 1018.8 hPa SSW 20.9 km/h 32.2 km/h 97 % 2.3 mm 21 W/m2
11:00 12.1 °C 11.6 °C 1018.8 hPa SSW 14.5 km/h 30.6 km/h 97 % 2.3 mm 28 W/m2
11:05 12.2 °C 11.7 °C 1018.8 hPa South 14.5 km/h 33.8 km/h 97 % 2.0 mm 18 W/m2
11:10 12.2 °C 11.7 °C 1018.8 hPa SW 14.5 km/h 33.8 km/h 97 % 2.3 mm 21 W/m2
11:15 12.2 °C 11.8 °C 1018.8 hPa WSW 17.7 km/h 29.0 km/h 97 % 2.3 mm 21 W/m2
11:20 12.3 °C 11.8 °C 1018.8 hPa WNW 17.7 km/h 33.8 km/h 97 % 2.0 mm 16 W/m2
11:25 12.3 °C 11.8 °C 1018.5 hPa SSW 9.7 km/h 33.8 km/h 97 % 1.8 mm 14 W/m2
11:30 12.3 °C 11.9 °C 1018.5 hPa WSW 14.5 km/h 29.0 km/h 97 % 1.5 mm 14 W/m2
11:35 12.4 °C 11.9 °C 1018.5 hPa SSW 22.5 km/h 29.0 km/h 97 % 1.5 mm 14 W/m2
11:40 12.4 °C 12.0 °C 1018.5 hPa West 12.9 km/h 35.4 km/h 97 % 1.3 mm 30 W/m2
11:50 12.4 °C 12.0 °C 1018.5 hPa SSW 14.5 km/h 35.4 km/h 97 % 1.3 mm 39 W/m2
11:55 12.5 °C 12.0 °C 1018.5 hPa South 11.3 km/h 33.8 km/h 97 % 1.0 mm 42 W/m2
12:00 12.5 °C 12.0 °C 1018.2 hPa SSW 14.5 km/h 29.0 km/h 97 % 1.0 mm 30 W/m2
12:05 12.5 °C 12.2 °C 1018.2 hPa WSW 8.0 km/h 32.2 km/h 98 % 1.0 mm 16 W/m2
12:10 12.6 °C 12.2 °C 1017.8 hPa WSW 16.1 km/h 32.2 km/h 98 % 0.5 mm 18 W/m2
12:15 12.6 °C 12.2 °C 1017.8 hPa WSW 17.7 km/h 30.6 km/h 98 % 0.5 mm 18 W/m2
12:20 12.6 °C 12.2 °C 1017.8 hPa WSW 14.5 km/h 29.0 km/h 98 % 0.5 mm 16 W/m2
12:25 12.5 °C 12.2 °C 1017.8 hPa SW 1.6 km/h 25.7 km/h 98 % 0.5 mm 21 W/m2
12:30 12.5 °C 12.0 °C 1017.8 hPa WSW 14.5 km/h 29.0 km/h 97 % 0.5 mm 32 W/m2
12:35 12.6 °C 12.1 °C 1017.5 hPa SW 8.0 km/h 29.0 km/h 97 % 0.5 mm 35 W/m2
12:40 12.6 °C 12.2 °C 1017.5 hPa SW 9.7 km/h 29.0 km/h 98 % 0.5 mm 23 W/m2
12:45 12.6 °C 12.3 °C 1017.5 hPa West 8.0 km/h 29.0 km/h 98 % 0.5 mm 21 W/m2
12:50 12.6 °C 12.2 °C 1017.5 hPa SW 14.5 km/h 29.0 km/h 98 % 0.5 mm 14 W/m2
12:55 12.6 °C 12.1 °C 1017.2 hPa SW 16.1 km/h 30.6 km/h 97 % 0.5 mm 26 W/m2
13:05 12.6 °C 12.1 °C 1017.2 hPa SW 14.5 km/h 35.4 km/h 97 % 0.5 mm 60 W/m2
13:10 12.6 °C 12.3 °C 1017.2 hPa WSW 22.5 km/h 30.6 km/h 98 % 0.5 mm 135 W/m2
13:15 12.7 °C 12.4 °C 1017.2 hPa SW 20.9 km/h 35.4 km/h 98 % 0.5 mm 102 W/m2
13:20 12.8 °C 12.5 °C 1017.2 hPa West 19.3 km/h 43.4 km/h 98 % 0.3 mm 120 W/m2
13:30 13.0 °C 12.7 °C 1016.8 hPa WNW 9.7 km/h 35.4 km/h 98 % 0.0 mm 65 W/m2
13:35 13.0 °C 12.7 °C 1016.8 hPa West 11.3 km/h 35.4 km/h 98 % 0.0 mm 60 W/m2
13:40 12.9 °C 12.4 °C 1016.8 hPa West 4.8 km/h 30.6 km/h 97 % 0.0 mm 53 W/m2
13:45 12.8 °C 12.4 °C 1016.5 hPa WSW 17.7 km/h 29.0 km/h 97 % 0.0 mm 35 W/m2
13:50 12.9 °C 12.6 °C 1016.5 hPa SSW 6.4 km/h 29.0 km/h 98 % 0.0 mm 28 W/m2
13:55 12.8 °C 12.5 °C 1016.5 hPa SW 16.1 km/h 29.0 km/h 98 % 0.0 mm 26 W/m2
14:00 12.8 °C 12.4 °C 1016.5 hPa West 17.7 km/h 25.7 km/h 97 % 0.0 mm 26 W/m2
14:05 12.8 °C 12.3 °C 1016.5 hPa South 9.7 km/h 27.4 km/h 97 % 0.0 mm 44 W/m2
14:10 12.9 °C 12.6 °C 1016.5 hPa West 30.6 km/h 30.6 km/h 98 % 0.0 mm 40 W/m2
14:15 12.9 °C 12.6 °C 1016.5 hPa WSW 25.7 km/h 30.6 km/h 98 % 0.3 mm 30 W/m2
14:20 12.9 °C 12.6 °C 1016.5 hPa West 14.5 km/h 30.6 km/h 98 % 0.3 mm 53 W/m2
14:25 12.8 °C 12.4 °C 1016.5 hPa WNW 12.9 km/h 30.6 km/h 97 % 0.5 mm 49 W/m2
14:30 12.8 °C 12.5 °C 1016.1 hPa WNW 6.4 km/h 24.1 km/h 98 % 0.5 mm 44 W/m2
14:35 12.9 °C 12.6 °C 1016.1 hPa SSW 11.3 km/h 27.4 km/h 98 % 0.5 mm 47 W/m2
14:40 12.8 °C 12.5 °C 1016.1 hPa West 16.1 km/h 27.4 km/h 98 % 0.5 mm 32 W/m2
14:45 12.8 °C 12.5 °C 1016.1 hPa SW 19.3 km/h 27.4 km/h 98 % 0.5 mm 35 W/m2
14:50 12.8 °C 12.5 °C 1016.1 hPa West 9.7 km/h 27.4 km/h 98 % 0.8 mm 32 W/m2
14:55 12.8 °C 12.5 °C 1015.8 hPa WSW 12.9 km/h 29.0 km/h 98 % 0.8 mm 39 W/m2
15:00 12.8 °C 12.5 °C 1016.1 hPa West 12.9 km/h 29.0 km/h 98 % 1.0 mm 35 W/m2
15:05 12.8 °C 12.5 °C 1015.8 hPa SW 17.7 km/h 29.0 km/h 98 % 1.0 mm 28 W/m2
15:10 12.8 °C 12.5 °C 1015.8 hPa NW 12.9 km/h 33.8 km/h 98 % 1.0 mm 39 W/m2
15:15 12.7 °C 12.4 °C 1015.8 hPa WSW 16.1 km/h 33.8 km/h 98 % 0.8 mm 37 W/m2
15:25 12.6 °C 12.3 °C 1015.8 hPa West 16.1 km/h 25.7 km/h 98 % 0.5 mm 42 W/m2
15:30 12.6 °C 12.3 °C 1015.8 hPa WNW 12.9 km/h 30.6 km/h 98 % 0.5 mm 40 W/m2
15:35 12.6 °C 12.3 °C 1015.8 hPa West 14.5 km/h 30.6 km/h 98 % 0.5 mm 37 W/m2
15:40 12.6 °C 12.3 °C 1015.8 hPa WNW 4.8 km/h 29.0 km/h 98 % 0.5 mm 44 W/m2
15:50 12.6 °C 12.2 °C 1015.8 hPa NW 6.4 km/h 27.4 km/h 98 % 0.5 mm 33 W/m2
15:55 12.6 °C 12.2 °C 1015.8 hPa WNW 12.9 km/h 29.0 km/h 98 % 0.5 mm 25 W/m2
16:00 12.6 °C 12.2 °C 1015.8 hPa WNW 14.5 km/h 29.0 km/h 98 % 0.3 mm 25 W/m2
16:05 12.5 °C 12.2 °C 1015.8 hPa West 16.1 km/h 25.7 km/h 98 % 0.3 mm 39 W/m2
16:10 12.4 °C 12.1 °C 1015.8 hPa West 6.4 km/h 25.7 km/h 98 % 0.3 mm 47 W/m2
16:20 12.2 °C 11.9 °C 1015.8 hPa West 11.3 km/h 17.7 km/h 98 % 0.3 mm 54 W/m2
16:25 12.1 °C 11.8 °C 1016.1 hPa WNW 6.4 km/h 16.1 km/h 98 % 0.3 mm 56 W/m2
16:30 11.9 °C 11.6 °C 1016.1 hPa West 8.0 km/h 14.5 km/h 98 % 0.0 mm 40 W/m2
16:40 11.6 °C 11.3 °C 1015.8 hPa WNW 1.6 km/h 17.7 km/h 98 % 0.0 mm 23 W/m2
16:45 11.4 °C 11.1 °C 1015.8 hPa West 8.0 km/h 19.3 km/h 98 % 0.0 mm 21 W/m2
16:50 11.3 °C 11.0 °C 1016.1 hPa West 9.7 km/h 19.3 km/h 98 % 0.0 mm 18 W/m2
16:55 11.2 °C 10.9 °C 1016.1 hPa West 8.0 km/h 16.1 km/h 98 % 0.0 mm 18 W/m2
17:05 11.0 °C 10.7 °C 1016.1 hPa NW 17.7 km/h 22.5 km/h 98 % 0.0 mm 16 W/m2
17:10 11.0 °C 10.7 °C 1016.5 hPa WNW 6.4 km/h 22.5 km/h 98 % 0.0 mm 9 W/m2
17:15 10.9 °C 10.6 °C 1016.5 hPa West 11.3 km/h 20.9 km/h 98 % 0.0 mm 5 W/m2
17:20 10.9 °C 10.6 °C 1016.5 hPa West 8.0 km/h 20.9 km/h 98 % 0.0 mm 0 W/m2
17:25 10.9 °C 10.6 °C 1016.5 hPa NW 4.8 km/h 19.3 km/h 98 % 0.0 mm 0 W/m2
17:30 11.0 °C 10.7 °C 1016.5 hPa WNW 6.4 km/h 20.9 km/h 98 % 0.0 mm 0 W/m2
17:40 11.1 °C 10.8 °C 1017.2 hPa West 14.5 km/h 27.4 km/h 98 % 0.0 mm 0 W/m2
17:45 11.1 °C 10.8 °C 1017.2 hPa WNW 14.5 km/h 27.4 km/h 98 % 0.0 mm 0 W/m2
17:50 11.1 °C 10.8 °C 1017.2 hPa WNW 11.3 km/h 27.4 km/h 98 % 0.0 mm 0 W/m2
18:00 11.0 °C 10.5 °C 1017.2 hPa NW 12.9 km/h 30.6 km/h 97 % 0.0 mm 0 W/m2
18:10 10.8 °C 10.3 °C 1017.5 hPa NW 8.0 km/h 24.1 km/h 97 % 0.0 mm 0 W/m2
18:15 10.7 °C 10.3 °C 1017.5 hPa WNW 6.4 km/h 24.1 km/h 97 % 0.0 mm 0 W/m2
18:30 10.6 °C 10.2 °C 1017.5 hPa WNW 4.8 km/h 20.9 km/h 97 % 0.0 mm 0 W/m2
18:35 10.6 °C 10.1 °C 1017.2 hPa NW 16.1 km/h 19.3 km/h 97 % 0.0 mm 0 W/m2
18:40 10.6 °C 10.1 °C 1017.2 hPa WNW 11.3 km/h 17.7 km/h 97 % 0.0 mm 0 W/m2
18:50 10.5 °C 10.0 °C 1017.2 hPa NW 6.4 km/h 16.1 km/h 97 % 0.0 mm 0 W/m2
18:55 10.5 °C 10.0 °C 1017.2 hPa West 9.7 km/h 17.7 km/h 97 % 0.0 mm 0 W/m2
19:00 10.5 °C 10.0 °C 1017.2 hPa WNW 6.4 km/h 19.3 km/h 97 % 0.0 mm 0 W/m2
19:05 10.5 °C 10.0 °C 1017.2 hPa WNW 9.7 km/h 19.3 km/h 97 % 0.0 mm 0 W/m2
19:10 10.5 °C 10.0 °C 1017.2 hPa NW 9.7 km/h 22.5 km/h 97 % 0.0 mm 0 W/m2
19:15 10.5 °C 10.0 °C 1017.5 hPa NW 8.0 km/h 22.5 km/h 97 % 0.0 mm 0 W/m2
19:20 10.5 °C 10.0 °C 1017.8 hPa WNW 16.1 km/h 24.1 km/h 97 % 0.0 mm 0 W/m2
19:25 10.5 °C 10.0 °C 1017.8 hPa WNW 16.1 km/h 24.1 km/h 97 % 0.0 mm 0 W/m2
19:30 10.4 °C 10.0 °C 1017.8 hPa NW 17.7 km/h 24.1 km/h 97 % 0.0 mm 0 W/m2
19:45 10.3 °C 9.8 °C 1018.2 hPa NW 6.4 km/h 19.3 km/h 97 % 0.0 mm 0 W/m2
19:50 10.2 °C 9.8 °C 1018.2 hPa North 11.3 km/h 19.3 km/h 97 % 0.0 mm 0 W/m2
19:55 10.2 °C 9.7 °C 1018.2 hPa NNW 4.8 km/h 19.3 km/h 97 % 0.0 mm 0 W/m2
20:05 10.1 °C 9.6 °C 1018.2 hPa NW 8.0 km/h 14.5 km/h 97 % 0.0 mm 0 W/m2
20:10 10.0 °C 9.5 °C 1018.2 hPa NNW 6.4 km/h 17.7 km/h 97 % 0.0 mm 0 W/m2
20:15 9.9 °C 9.5 °C 1018.2 hPa WNW 6.4 km/h 17.7 km/h 97 % 0.0 mm 0 W/m2
20:25 9.7 °C 9.2 °C 1018.2 hPa West 4.8 km/h 17.7 km/h 97 % 0.0 mm 0 W/m2
20:40 9.6 °C 9.1 °C 1018.5 hPa WNW 8.0 km/h 14.5 km/h 97 % 0.0 mm 0 W/m2
20:45 9.4 °C 9.0 °C 1018.5 hPa NW 11.3 km/h 16.1 km/h 97 % 0.0 mm 0 W/m2
20:50 9.3 °C 8.7 °C 1018.8 hPa NW 14.5 km/h 20.9 km/h 96 % 0.0 mm 0 W/m2
20:55 9.1 °C 8.5 °C 1018.8 hPa NNW 17.7 km/h 20.9 km/h 96 % 0.0 mm 0 W/m2
21:00 8.9 °C 8.3 °C 1018.8 hPa NW 6.4 km/h 24.1 km/h 96 % 0.0 mm 0 W/m2
21:10 8.8 °C 8.0 °C 1019.2 hPa NW 11.3 km/h 22.5 km/h 95 % 0.0 mm 0 W/m2
21:15 8.6 °C 7.9 °C 1019.2 hPa NW 6.4 km/h 20.9 km/h 95 % 0.0 mm 0 W/m2
21:25 8.4 °C 7.7 °C 1019.5 hPa NNW 9.7 km/h 24.1 km/h 95 % 0.0 mm 0 W/m2
21:30 8.3 °C 7.6 °C 1019.5 hPa WNW 6.4 km/h 19.3 km/h 95 % 0.0 mm 0 W/m2
21:35 8.3 °C 7.5 °C 1019.5 hPa NNW 9.7 km/h 16.1 km/h 95 % 0.0 mm 0 W/m2
21:40 8.2 °C 7.3 °C 1019.5 hPa NW 9.7 km/h 19.3 km/h 94 % 0.0 mm 0 W/m2
21:45 8.0 °C 7.1 °C 1019.5 hPa NW 1.6 km/h 19.3 km/h 94 % 0.0 mm 0 W/m2
21:55 7.7 °C 6.8 °C 1019.9 hPa NNW 8.0 km/h 22.5 km/h 94 % 0.0 mm 0 W/m2
22:05 7.4 °C 6.4 °C 1019.9 hPa NNE 8.0 km/h 19.3 km/h 93 % 0.0 mm 0 W/m2
22:15 7.1 °C 6.2 °C 1020.2 hPa WNW 4.8 km/h 17.7 km/h 94 % 0.0 mm 0 W/m2
22:20 7.1 °C 6.2 °C 1019.9 hPa NNW 14.5 km/h 17.7 km/h 94 % 0.0 mm 0 W/m2
22:25 7.1 °C 6.2 °C 1020.2 hPa NW 9.7 km/h 17.7 km/h 94 % 0.0 mm 0 W/m2
22:30 7.3 °C 6.4 °C 1020.2 hPa NW 4.8 km/h 16.1 km/h 94 % 0.0 mm 0 W/m2
22:35 7.3 °C 6.4 °C 1020.2 hPa NW 6.4 km/h 14.5 km/h 94 % 0.0 mm 0 W/m2
22:38 7.3 °C 6.4 °C 1020.2 hPa WNW 4.8 km/h 11.3 km/h 94 % 0.0 mm 0 W/m2
22:49 7.3 °C 6.4 °C 1020.2 hPa NW 9.7 km/h 11.3 km/h 94 % 0.0 mm 0 W/m2
22:55 7.1 °C 6.0 °C 1020.2 hPa NW 6.4 km/h 11.3 km/h 93 % 0.0 mm 0 W/m2
23:10 7.1 °C 6.2 °C 1020.2 hPa WNW 3.2 km/h 11.3 km/h 94 % 0.0 mm 0 W/m2
23:20 7.1 °C 6.2 °C 1020.2 hPa Calm   8.0 km/h 94 % 0.0 mm 0 W/m2
23:25 7.2 °C 6.3 °C 1020.2 hPa NW 6.4 km/h 9.7 km/h 94 % 0.0 mm 0 W/m2
23:30 7.2 °C 6.3 °C 1020.2 hPa WNW 6.4 km/h 11.3 km/h 94 % 0.0 mm 0 W/m2
23:35 7.3 °C 6.4 °C 1020.2 hPa NW 4.8 km/h 11.3 km/h 94 % 0.0 mm 0 W/m2
23:40 7.3 °C 6.3 °C 1020.2 hPa NW 1.6 km/h 9.7 km/h 93 % 0.0 mm 0 W/m2
23:45 7.2 °C 6.2 °C 1020.2 hPa WNW 9.7 km/h 11.3 km/h 93 % 0.0 mm 0 W/m2
23:50 7.1 °C 6.1 °C 1020.2 hPa NNW 6.4 km/h 11.3 km/h 93 % 0.0 mm 0 W/m2
23:55 7.1 °C 6.0 °C 1020.2 hPa WNW 6.4 km/h 14.5 km/h 93 % 0.0 mm 0 W/m2
Avec l'autorisation de Weather Underground - 1.5 mb